Monterey Peninsula Airport
KMRY : now visible

Airfield :











YOU CAN JOIN US ON...

 
LOGIN :

Register | Disclaimer

   EN    FR    IT 

 









Legend :    VFR   Marginal VFR   IFR   Intensive IFR   Very Intensive IFR
Visi :
Ceiling :
>= 8 km
>= 3000ft
5 to 8 km
1000 to 3000 ft
1500m to 5 km
500 to 1000 ft
800 to 1500m
200 to 500 ft
< 800m
< 200 ft
Symbols :   Thunderstorms  Fog  Heavy snow  Heavy precipitations  Wind > 20 kt






- Airport Elevation : 257 ft
- IATA code : MRY


KMRY - Monterey Peninsula

CURRENT METAR :
  • 260554Z AUTO 23004KT 10SM FEW017 SCT022 11/07 A3009 RMK AO2 SLP200 T01060072 10156 20106 50005 $

EXPIRED METARs :
  • 260454Z AUTO 25005KT 10SM CLR 11/07 A3009 RMK AO2 SLP200 T01110072 $
  • 260354Z AUTO 28005KT 10SM SCT016 12/08 A3008 RMK AO2 SLP197 T01170078 $
  • 260301Z 28008KT 10SM BKN016 12/08 A3007 RMK AO2 T01220083 $
  • 260154Z 30010KT 10SM FEW020 13/08 A3006 RMK AO2 SLP193 T01330078 $

TAF KMRY
Valid from the 26 at 06:00 until the 27 at 06:00 UTC


260533Z 2606/2706 28007KT P6SM SKC
FM261000 26006KT P6SM BKN010
FM261800 29008KT P6SM FEW011
FM270300 28006KT P6SM BKN010
KZOA FIR / North America



MET'MAP, your aeronautical weather chart ! - Copyright ORBIFLY December 2007 - Disclaimer

ORBIFLY MET'MAP TEAM :

Programming & Development : Alexandra Zaïnal
Original concept : Baudouin d'Aumeries
Technical & hardware support : Manuel Goepfert
Assistance : Marc-Olivier Méhu




SOURCES & CREDITS :

   NOAA       Earth
Advisory